Time;durP1;ratioP1;P1;durP2;ratioP2;P2;SDS_P1;SDS_P2;PMS_P1;PMS_P2;Temp;Humidity;BMP_temperature;BMP_pressure;BME280_temperature;BME280_humidity;BME280_pressure;Samples;Min_cycle;Max_cycle;Signal;HPM_P1;HPM_P2
2023/05/28 00:00:13;;;;;;;44.80;24.95;;;15.00;99.90;;;;;;5117572;28;20032;-64
2023/05/28 00:02:41;;;;;;;39.00;22.73;;;15.10;99.90;;;;;;5116900;28;20184;-64
2023/05/28 00:05:07;;;;;;;37.78;22.77;;;15.10;99.90;;;;;;5117353;28;20114;-64
2023/05/28 00:07:33;;;;;;;38.30;22.85;;;15.20;99.90;;;;;;5117436;28;20553;-64
2023/05/28 00:09:59;;;;;;;33.28;22.48;;;15.20;99.90;;;;;;5117192;28;20043;-65
2023/05/28 00:12:25;;;;;;;40.03;24.13;;;15.20;99.90;;;;;;5117119;28;20028;-65
2023/05/28 00:14:51;;;;;;;39.22;23.77;;;15.10;99.90;;;;;;5117365;28;20024;-65
2023/05/28 00:17:17;;;;;;;38.42;24.55;;;15.20;99.90;;;;;;5117121;28;20046;-64
2023/05/28 00:19:44;;;;;;;46.58;28.20;;;15.10;99.90;;;;;;5117075;28;20472;-65
2023/05/28 00:22:11;;;;;;;52.80;31.50;;;15.10;99.90;;;;;;5116857;28;20481;-65
2023/05/28 00:24:37;;;;;;;67.68;35.70;;;15.20;99.90;;;;;;5117149;28;20061;-65
2023/05/28 00:27:03;;;;;;;89.53;42.70;;;15.00;99.90;;;;;;5117124;28;20020;-65
2023/05/28 00:29:30;;;;;;;102.65;46.72;;;15.00;99.90;;;;;;5116864;28;20056;-65
2023/05/28 00:31:56;;;;;;;129.07;53.28;;;15.00;99.90;;;;;;5116772;28;20072;-65
2023/05/28 00:34:23;;;;;;;141.63;54.28;;;15.00;99.90;;;;;;5098452;28;20051;-64
2023/05/28 00:36:49;;;;;;;172.15;63.38;;;15.00;99.90;;;;;;5098524;28;20027;-64
2023/05/28 00:39:18;;;;;;;164.43;65.43;;;15.00;99.90;;;;;;5098673;28;20042;-65
2023/05/28 00:41:45;;;;;;;184.73;71.95;;;15.10;99.90;;;;;;5116934;28;20088;-64
2023/05/28 00:44:12;;;;;;;260.30;79.95;;;15.10;99.90;;;;;;5098209;28;20027;-64
2023/05/28 00:46:43;;;;;;;223.48;78.55;;;15.10;99.90;;;;;;5116526;28;20055;-64
2023/05/28 00:49:13;;;;;;;198.57;75.63;;;15.10;99.90;;;;;;5116558;28;20054;-64
2023/05/28 00:51:40;;;;;;;229.20;83.47;;;15.00;99.90;;;;;;5116573;28;20020;-64
2023/05/28 00:54:07;;;;;;;229.13;83.18;;;15.00;99.90;;;;;;5116542;28;20062;-64
2023/05/28 00:56:34;;;;;;;243.80;82.10;;;15.00;99.90;;;;;;5098171;28;20032;-64
2023/05/28 00:59:01;;;;;;;275.77;88.38;;;15.10;99.90;;;;;;5116242;28;20031;-64
2023/05/28 01:01:29;;;;;;;293.52;89.75;;;15.30;99.90;;;;;;5116252;28;20396;-64
2023/05/28 01:03:55;;;;;;;302.77;90.50;;;15.30;99.90;;;;;;5116353;28;20051;-64
2023/05/28 01:06:22;;;;;;;338.70;96.25;;;15.30;99.90;;;;;;5115521;27;20030;-64
2023/05/28 01:08:49;;;;;;;342.90;92.20;;;15.20;99.90;;;;;;5115830;28;20032;-64
2023/05/28 01:11:18;;;;;;;325.27;89.45;;;15.20;99.90;;;;;;5116114;28;20096;-64
2023/05/28 01:13:45;;;;;;;299.23;80.28;;;15.20;99.90;;;;;;5116005;28;20027;-64
2023/05/28 01:16:12;;;;;;;264.88;79.57;;;15.10;99.90;;;;;;5116113;28;20035;-64
2023/05/28 01:18:40;;;;;;;263.13;80.65;;;15.10;99.90;;;;;;5116028;28;20500;-64
2023/05/28 01:21:08;;;;;;;261.33;78.68;;;15.10;99.90;;;;;;5097548;28;20031;-64
2023/05/28 01:23:45;;;;;;;265.98;78.47;;;15.10;99.90;;;;;;5097549;28;20031;-64
2023/05/28 01:26:16;;;;;;;292.40;83.60;;;15.10;99.90;;;;;;5097510;28;20085;-64
2023/05/28 01:28:46;;;;;;;275.08;82.95;;;15.10;99.90;;;;;;5097424;28;20034;-64
2023/05/28 01:31:13;;;;;;;279.80;85.45;;;15.20;99.90;;;;;;5097355;28;20053;-64
2023/05/28 01:33:41;;;;;;;297.52;82.00;;;15.30;99.90;;;;;;5097316;28;20565;-64
2023/05/28 01:36:21;;;;;;;301.48;85.78;;;15.20;99.90;;;;;;5097296;28;20031;-65
2023/05/28 01:38:49;;;;;;;268.02;78.82;;;15.20;99.90;;;;;;5097251;28;20039;-64
2023/05/28 01:41:16;;;;;;;253.05;74.03;;;15.20;99.90;;;;;;5097394;28;20389;-65
2023/05/28 01:43:44;;;;;;;246.38;70.38;;;15.20;99.90;;;;;;5115423;28;20035;-64
2023/05/28 01:46:10;;;;;;;260.10;73.35;;;15.30;99.90;;;;;;5097361;28;20495;-64
2023/05/28 01:48:37;;;;;;;229.70;69.85;;;15.30;99.90;;;;;;5097209;28;20058;-64
2023/05/28 01:51:03;;;;;;;229.13;69.47;;;15.20;99.90;;;;;;5097172;28;20119;-64
2023/05/28 01:53:29;;;;;;;229.18;66.88;;;15.10;99.90;;;;;;5080228;28;20480;-64
2023/05/28 01:55:56;;;;;;;191.75;64.75;;;15.00;99.90;;;;;;5097137;28;20039;-64
2023/05/28 01:58:25;;;;;;;241.15;70.00;;;15.00;99.90;;;;;;5096986;28;20499;-64
2023/05/28 02:01:17;;;;;;;200.07;63.90;;;14.90;99.90;;;;;;5096995;28;20027;-65
2023/05/28 02:03:43;;;;;;;210.20;66.10;;;14.80;99.90;;;;;;5096998;28;20098;-64
2023/05/28 02:06:09;;;;;;;241.00;70.78;;;14.80;99.90;;;;;;5096976;28;20062;-64
2023/05/28 02:08:35;;;;;;;247.55;72.05;;;14.80;99.90;;;;;;5096858;28;20096;-64
2023/05/28 02:11:01;;;;;;;249.32;71.90;;;14.80;99.90;;;;;;5114985;28;20026;-64
2023/05/28 02:13:27;;;;;;;211.70;66.15;;;14.80;99.90;;;;;;5115078;28;20026;-65
2023/05/28 02:15:55;;;;;;;222.27;67.95;;;14.80;99.90;;;;;;5079953;28;20511;-64
2023/05/28 02:18:21;;;;;;;244.65;66.57;;;14.80;99.90;;;;;;5096499;28;20469;-64
2023/05/28 02:20:47;;;;;;;230.00;59.15;;;14.80;99.90;;;;;;5096703;28;20392;-64
2023/05/28 02:23:15;;;;;;;235.50;65.35;;;14.70;99.90;;;;;;5096587;28;20068;-64
2023/05/28 02:25:41;;;;;;;229.93;64.03;;;14.60;99.90;;;;;;5114989;28;20419;-64
2023/05/28 02:28:07;;;;;;;217.60;63.35;;;14.60;99.90;;;;;;5096994;28;20028;-64
2023/05/28 02:30:33;;;;;;;208.45;61.13;;;14.60;99.90;;;;;;5096773;28;20028;-64
2023/05/28 02:32:59;;;;;;;213.65;62.88;;;14.60;99.90;;;;;;5114610;28;20055;-65
2023/05/28 02:35:25;;;;;;;227.43;62.17;;;14.50;99.90;;;;;;5114921;28;20036;-64
2023/05/28 02:37:51;;;;;;;234.18;67.38;;;14.50;99.90;;;;;;5115019;28;20027;-64
2023/05/28 02:40:17;;;;;;;241.77;65.45;;;14.50;99.90;;;;;;5096543;28;20027;-64
2023/05/28 02:42:44;;;;;;;226.15;60.30;;;14.60;99.90;;;;;;5079817;28;20102;-64
2023/05/28 02:45:10;;;;;;;206.75;61.80;;;14.60;99.90;;;;;;5096707;28;20080;-64
2023/05/28 02:47:36;;;;;;;205.27;59.05;;;14.60;99.90;;;;;;5096374;28;20055;-65
2023/05/28 02:50:03;;;;;;;178.70;56.90;;;14.60;99.90;;;;;;5096491;28;20130;-64
2023/05/28 02:52:41;;;;;;;177.00;54.88;;;14.70;99.90;;;;;;5096408;28;20046;-64
2023/05/28 02:55:07;;;;;;;168.15;53.53;;;14.70;99.90;;;;;;5096349;28;20122;-64
2023/05/28 02:57:33;;;;;;;155.82;51.67;;;14.70;99.90;;;;;;5096451;28;20110;-65
2023/05/28 03:00:02;;;;;;;151.65;49.45;;;14.60;99.90;;;;;;5079757;28;20086;-64
2023/05/28 03:02:28;;;;;;;154.15;51.42;;;14.50;99.90;;;;;;5095934;28;20112;-64
2023/05/28 03:04:54;;;;;;;162.98;52.35;;;14.60;99.90;;;;;;5096369;28;20047;-65
2023/05/28 03:07:20;;;;;;;152.57;50.22;;;14.60;99.90;;;;;;5096305;28;20055;-65
2023/05/28 03:09:46;;;;;;;151.85;48.65;;;14.60;99.90;;;;;;5096151;28;20035;-64
2023/05/28 03:12:12;;;;;;;171.35;55.75;;;14.60;99.90;;;;;;5096094;28;20027;-64
2023/05/28 03:14:38;;;;;;;197.68;61.00;;;14.70;99.90;;;;;;5096221;28;20074;-64
2023/05/28 03:17:04;;;;;;;172.77;56.63;;;14.60;99.90;;;;;;5096320;28;20027;-65
2023/05/28 03:19:31;;;;;;;175.43;55.30;;;14.60;99.90;;;;;;5096229;28;20035;-64
2023/05/28 03:21:57;;;;;;;138.55;46.13;;;14.60;99.90;;;;;;5095947;28;20031;-64
2023/05/28 03:24:32;;;;;;;157.25;49.33;;;14.70;99.90;;;;;;5096182;28;20035;-64
2023/05/28 03:26:59;;;;;;;157.32;51.97;;;14.70;99.90;;;;;;5096033;28;20084;-65
2023/05/28 03:29:26;;;;;;;160.50;48.58;;;14.60;99.90;;;;;;5096129;28;20027;-65
2023/05/28 03:32:10;;;;;;;119.57;46.08;;;14.60;99.90;;;;;;5118014;28;20322;-65
2023/05/28 03:34:36;;;;;;;115.05;44.35;;;14.60;99.90;;;;;;5099705;28;20107;-64
2023/05/28 03:37:03;;;;;;;118.68;44.42;;;14.60;99.90;;;;;;5099618;28;20031;-65
2023/05/28 03:39:30;;;;;;;112.55;41.50;;;14.70;99.90;;;;;;5099602;28;20059;-64
2023/05/28 03:41:56;;;;;;;166.82;51.10;;;14.70;99.90;;;;;;5099644;28;20028;-65
2023/05/28 03:44:25;;;;;;;139.77;44.13;;;14.70;99.90;;;;;;5099474;28;20373;-65
2023/05/28 03:46:52;;;;;;;143.82;46.58;;;14.60;99.90;;;;;;5099557;28;20056;-64
2023/05/28 03:49:18;;;;;;;129.65;45.13;;;14.60;99.90;;;;;;5099389;28;20028;-64
2023/05/28 03:51:44;;;;;;;124.40;44.25;;;14.70;99.90;;;;;;5099415;28;20020;-64
2023/05/28 03:54:10;;;;;;;152.68;48.63;;;14.70;99.90;;;;;;5099285;28;20503;-64
2023/05/28 03:56:36;;;;;;;143.32;46.97;;;14.80;99.90;;;;;;5099370;28;20059;-64
2023/05/28 03:59:04;;;;;;;136.60;46.40;;;14.80;99.90;;;;;;5099184;28;20042;-64
2023/05/28 04:01:30;;;;;;;149.18;46.08;;;14.80;99.90;;;;;;5082468;28;20111;-64
2023/05/28 04:03:56;;;;;;;149.93;48.03;;;14.90;99.90;;;;;;5099137;28;20093;-64
2023/05/28 04:06:23;;;;;;;150.13;47.70;;;14.90;99.90;;;;;;5099109;28;20095;-64
2023/05/28 04:08:52;;;;;;;113.35;41.22;;;14.90;99.90;;;;;;5098787;28;20028;-64
2023/05/28 04:11:18;;;;;;;122.55;38.65;;;14.80;99.90;;;;;;5099014;28;20074;-64
2023/05/28 04:13:44;;;;;;;116.15;36.38;;;14.80;99.90;;;;;;5117208;28;20027;-64
2023/05/28 04:16:10;;;;;;;112.03;38.55;;;14.90;99.90;;;;;;5098916;28;20361;-64
2023/05/28 04:18:36;;;;;;;130.45;39.17;;;14.90;99.90;;;;;;5098888;28;20036;-64
2023/05/28 04:21:03;;;;;;;124.45;38.00;;;14.90;99.90;;;;;;5117094;28;20434;-64
2023/05/28 04:23:29;;;;;;;113.00;38.22;;;14.90;99.90;;;;;;5098844;28;20035;-65
2023/05/28 04:25:56;;;;;;;143.13;38.55;;;14.90;99.90;;;;;;5117152;28;20499;-65
2023/05/28 04:28:24;;;;;;;156.30;44.75;;;14.90;99.90;;;;;;5098763;28;20495;-64
2023/05/28 04:30:50;;;;;;;158.93;43.95;;;14.90;99.90;;;;;;5116962;28;20023;-64
2023/05/28 04:33:20;;;;;;;141.85;39.45;;;14.80;99.90;;;;;;5098360;28;20044;-65
2023/05/28 04:35:48;;;;;;;166.45;48.95;;;14.90;99.90;;;;;;5116796;28;20373;-65
2023/05/28 04:38:14;;;;;;;161.55;48.88;;;14.80;99.90;;;;;;5081786;28;20061;-65
2023/05/28 04:40:41;;;;;;;125.90;42.15;;;14.90;99.90;;;;;;5098602;28;20036;-65
2023/05/28 04:43:08;;;;;;;112.10;40.00;;;15.00;99.90;;;;;;5098466;28;20063;-65
2023/05/28 04:45:35;;;;;;;118.43;40.80;;;15.10;99.90;;;;;;5098384;28;20110;-64
2023/05/28 04:48:01;;;;;;;107.78;39.28;;;15.10;99.90;;;;;;5098280;28;20460;-65
2023/05/28 04:50:28;;;;;;;126.53;41.42;;;15.20;99.90;;;;;;5098445;28;20023;-65
2023/05/28 04:52:54;;;;;;;109.20;40.72;;;15.20;99.90;;;;;;5116610;28;20361;-65
2023/05/28 04:55:20;;;;;;;114.00;38.55;;;15.20;99.90;;;;;;5098154;28;20034;-64
2023/05/28 04:57:46;;;;;;;119.90;41.13;;;15.20;99.90;;;;;;5116491;28;20051;-64
2023/05/28 05:00:12;;;;;;;119.00;43.78;;;15.30;99.90;;;;;;5098053;28;20032;-65
2023/05/28 05:02:41;;;;;;;117.72;41.78;;;15.30;99.90;;;;;;5098039;28;20048;-64
2023/05/28 05:05:07;;;;;;;107.53;38.05;;;15.30;99.90;;;;;;5098002;28;20063;-64
2023/05/28 05:07:37;;;;;;;107.00;39.20;;;15.40;99.90;;;;;;5097951;28;20035;-65
2023/05/28 05:10:08;;;;;;;107.93;39.17;;;15.50;99.90;;;;;;5097703;28;20101;-65
2023/05/28 05:12:34;;;;;;;110.90;40.97;;;15.50;99.90;;;;;;5097859;28;20042;-64
2023/05/28 05:15:01;;;;;;;139.73;43.78;;;15.40;99.90;;;;;;5116102;28;20436;-65
2023/05/28 05:17:27;;;;;;;118.10;42.50;;;15.40;99.90;;;;;;5097701;28;20028;-65
2023/05/28 05:19:53;;;;;;;136.27;42.53;;;15.40;99.90;;;;;;5097811;28;20566;-64
2023/05/28 05:22:19;;;;;;;123.55;43.60;;;15.50;99.90;;;;;;5097612;28;20024;-64
2023/05/28 05:24:48;;;;;;;136.55;46.50;;;15.60;99.90;;;;;;5097578;28;20032;-65
2023/05/28 05:27:15;;;;;;;135.05;45.42;;;15.60;99.90;;;;;;5080710;28;20027;-65
2023/05/28 05:29:41;;;;;;;134.88;44.53;;;15.60;99.90;;;;;;5097482;28;20464;-65
2023/05/28 05:32:09;;;;;;;125.80;43.33;;;15.70;99.90;;;;;;5097327;28;20024;-65
2023/05/28 05:34:36;;;;;;;118.32;42.83;;;15.60;99.90;;;;;;5097306;28;20047;-65
2023/05/28 05:37:24;;;;;;;119.13;44.35;;;15.50;99.90;;;;;;5113066;28;20035;-65
2023/05/28 05:40:27;;;;;;;114.93;40.72;;;15.70;99.90;;;;;;5099963;28;20031;-65
2023/05/28 05:43:15;;;;;;;123.75;43.20;;;15.80;99.90;;;;;;5101766;28;20032;-65
2023/05/28 05:45:41;;;;;;;116.55;43.97;;;15.80;99.90;;;;;;5097275;28;20039;-65
2023/05/28 05:48:09;;;;;;;112.90;44.13;;;15.70;99.90;;;;;;5097112;28;20028;-64
2023/05/28 05:50:50;;;;;;;126.88;45.50;;;15.70;99.90;;;;;;5097290;28;20030;-64
2023/05/28 05:53:16;;;;;;;;;;;15.80;99.90;;;;;;5115319;28;20055;-65
2023/05/28 05:55:43;;;;;;;123.20;44.80;;;15.80;99.90;;;;;;5115390;28;19904;-64
2023/05/28 05:58:10;;;;;;;116.40;42.00;;;15.70;99.90;;;;;;5096942;28;20039;-65
2023/05/28 06:00:36;;;;;;;120.15;44.70;;;15.90;99.90;;;;;;5096896;28;20027;-65
2023/05/28 06:03:02;;;;;;;106.03;42.70;;;16.00;99.90;;;;;;5096869;28;20030;-65
2023/05/28 06:05:46;;;;;;;114.05;42.78;;;16.10;99.90;;;;;;5115169;28;20027;-65
2023/05/28 06:08:24;;;;;;;107.95;42.92;;;16.10;99.90;;;;;;5096959;28;20024;-65
2023/05/28 06:11:02;;;;;;;103.10;40.50;;;16.10;99.90;;;;;;5096760;28;20088;-65
2023/05/28 06:13:28;;;;;;;110.80;43.67;;;16.10;99.90;;;;;;5096741;28;20419;-65
2023/05/28 06:15:54;;;;;;;104.72;42.30;;;16.20;99.90;;;;;;5096829;28;20033;-65
2023/05/28 06:18:21;;;;;;;84.25;35.60;;;16.30;99.90;;;;;;5096865;28;20069;-65
2023/05/28 06:20:49;;;;;;;68.07;32.58;;;16.50;99.90;;;;;;5096890;28;20405;-65
2023/05/28 06:23:16;;;;;;;73.45;32.33;;;16.50;99.90;;;;;;5096726;28;20505;-65
2023/05/28 06:25:43;;;;;;;71.28;31.52;;;16.50;99.90;;;;;;5096648;28;20027;-65
2023/05/28 06:28:13;;;;;;;80.82;31.73;;;16.50;99.90;;;;;;5096603;28;20097;-65
2023/05/28 06:30:40;;;;;;;78.72;35.03;;;16.60;99.90;;;;;;5096555;28;20366;-65
2023/05/28 06:33:07;;;;;;;71.07;31.65;;;16.60;99.90;;;;;;5096455;28;20107;-65
2023/05/28 06:35:34;;;;;;;69.63;32.47;;;16.70;99.90;;;;;;5096596;28;20027;-65
2023/05/28 06:38:01;;;;;;;71.00;34.97;;;16.70;99.90;;;;;;5096935;28;20510;-65
2023/05/28 06:40:27;;;;;;;67.53;33.78;;;16.70;99.90;;;;;;5096630;28;20109;-65
2023/05/28 06:42:54;;;;;;;74.22;37.10;;;16.70;99.90;;;;;;5114527;28;20493;-65
2023/05/28 06:45:32;;;;;;;73.32;35.45;;;16.70;99.90;;;;;;5081245;28;20114;-65
2023/05/28 06:48:00;;;;;;;69.65;35.45;;;16.70;99.90;;;;;;5096544;28;20118;-65
2023/05/28 06:50:27;;;;;;;65.32;33.92;;;16.60;99.90;;;;;;5096341;28;20136;-65
2023/05/28 06:52:53;;;;;;;70.47;34.17;;;16.60;99.90;;;;;;5096608;28;20031;-65
2023/05/28 06:55:20;;;;;;;65.10;35.53;;;16.60;99.90;;;;;;5096314;28;20039;-65
2023/05/28 06:58:18;;;;;;;72.95;36.75;;;16.60;99.90;;;;;;5069103;28;20040;-65
2023/05/28 07:01:07;;;;;;;70.82;34.97;;;16.60;99.90;;;;;;5113275;28;20027;-65
2023/05/28 07:04:08;;;;;;;64.00;33.50;;;16.70;99.90;;;;;;5091693;28;20043;-65
2023/05/28 07:06:40;;;;;;;61.40;32.42;;;16.80;99.90;;;;;;5099852;28;20024;-65
2023/05/28 07:09:10;;;;;;;63.35;32.50;;;16.90;99.90;;;;;;5100366;28;20084;-65
2023/05/28 07:11:37;;;;;;;53.33;30.50;;;17.00;99.90;;;;;;5118533;28;20039;-65
2023/05/28 07:14:03;;;;;;;61.22;33.65;;;17.10;99.90;;;;;;5100203;28;20024;-65
2023/05/28 07:16:30;;;;;;;59.10;33.50;;;17.10;99.90;;;;;;5100045;28;20053;-66
2023/05/28 07:18:56;;;;;;;66.53;34.03;;;17.00;99.90;;;;;;5099963;28;20020;-65
2023/05/28 07:21:25;;;;;;;82.05;38.72;;;17.10;99.90;;;;;;5100125;28;20023;-65
2023/05/28 07:23:51;;;;;;;96.53;44.10;;;17.20;99.90;;;;;;5118118;28;20424;-65
2023/05/28 07:26:17;;;;;;;124.03;52.85;;;17.30;99.90;;;;;;5099729;28;20078;-65
2023/05/28 07:28:44;;;;;;;125.80;52.40;;;17.30;99.90;;;;;;5099799;28;20032;-65
2023/05/28 07:31:09;;;;;;;128.02;56.70;;;17.30;99.90;;;;;;5118045;28;20076;-65
2023/05/28 07:33:36;;;;;;;141.38;59.58;;;17.40;99.90;;;;;;5099641;28;20076;-65
2023/05/28 07:36:03;;;;;;;144.10;64.75;;;17.30;99.90;;;;;;5099749;28;20027;-65
2023/05/28 07:38:30;;;;;;;143.75;63.00;;;17.30;99.90;;;;;;5099734;28;20030;-65
2023/05/28 07:40:59;;;;;;;156.88;68.10;;;17.30;99.90;;;;;;5099586;28;20630;-66
2023/05/28 07:43:42;;;;;;;197.43;74.80;;;17.30;99.90;;;;;;5099543;28;20020;-65
2023/05/28 07:46:18;;;;;;;199.77;75.47;;;17.40;99.90;;;;;;5099496;28;20385;-65
2023/05/28 07:48:49;;;;;;;191.82;75.15;;;17.40;99.90;;;;;;5099487;28;20048;-66
2023/05/28 07:51:26;;;;;;;207.32;73.18;;;17.40;99.90;;;;;;5099511;28;20024;-65
2023/05/28 07:54:02;;;;;;;197.45;71.53;;;17.40;99.90;;;;;;5099226;28;20027;-66
2023/05/28 07:56:29;;;;;;;196.23;72.75;;;17.40;99.90;;;;;;5099406;28;20043;-66
2023/05/28 07:58:56;;;;;;;205.55;73.60;;;17.50;99.90;;;;;;5099381;28;20030;-65
2023/05/28 08:01:23;;;;;;;200.10;71.57;;;17.50;99.90;;;;;;5099179;28;20088;-65
2023/05/28 08:03:53;;;;;;;167.13;61.47;;;17.60;99.90;;;;;;5117524;28;20111;-65
2023/05/28 08:06:22;;;;;;;145.85;57.13;;;17.80;99.90;;;;;;5099145;28;20118;-65
2023/05/28 08:08:48;;;;;;;148.55;57.03;;;17.70;99.90;;;;;;5099056;28;20034;-65
2023/05/28 08:11:15;;;;;;;132.10;52.17;;;18.00;99.90;;;;;;5117340;28;20063;-65
2023/05/28 08:13:41;;;;;;;121.55;48.53;;;18.10;99.90;;;;;;5117407;28;20067;-65
2023/05/28 08:16:12;;;;;;;89.53;41.83;;;18.30;99.90;;;;;;5098577;28;20092;-65
2023/05/28 08:18:58;;;;;;;86.45;42.63;;;18.50;99.90;;;;;;5117339;28;20067;-65
2023/05/28 08:21:24;;;;;;;78.85;42.88;;;18.60;99.90;;;;;;5098927;28;20034;-65
2023/05/28 08:23:50;;;;;;;91.22;42.97;;;18.60;99.90;;;;;;5098589;28;20028;-65
2023/05/28 08:26:16;;;;;;;104.13;47.13;;;18.70;99.90;;;;;;5098816;28;20027;-65
2023/05/28 08:28:42;;;;;;;112.15;48.15;;;18.90;99.90;;;;;;5098696;28;20027;-65
2023/05/28 08:31:08;;;;;;;124.13;52.40;;;19.00;99.90;;;;;;5098532;28;20031;-65
2023/05/28 08:33:49;;;;;;;;;;;19.10;99.90;;;;;;5098972;28;20420;-65
2023/05/28 08:36:15;;;;;;;135.63;56.65;;;19.20;99.90;;;;;;5098307;28;19911;-65
2023/05/28 08:38:42;;;;;;;134.98;60.22;;;19.20;99.90;;;;;;5116761;28;20502;-65
2023/05/28 08:41:10;;;;;;;123.70;56.03;;;19.10;99.90;;;;;;5098468;28;20069;-65
2023/05/28 08:43:36;;;;;;;132.07;60.63;;;19.20;99.90;;;;;;5098327;28;20204;-65
2023/05/28 08:46:03;;;;;;;130.05;59.83;;;19.50;99.90;;;;;;5098297;28;20032;-65
2023/05/28 08:48:55;;;;;;;113.43;52.28;;;19.60;99.90;;;;;;5098377;28;20051;-65
2023/05/28 08:51:24;;;;;;;88.43;46.47;;;19.70;99.90;;;;;;5098210;28;20523;-65
2023/05/28 08:53:52;;;;;;;94.93;48.45;;;19.60;99.90;;;;;;5098280;28;20031;-65
2023/05/28 08:56:25;;;;;;;98.75;48.88;;;19.50;99.90;;;;;;5098127;28;20028;-66
2023/05/28 08:58:52;;;;;;;89.22;45.47;;;19.30;99.90;;;;;;5097930;28;20485;-65
2023/05/28 09:01:19;;;;;;;86.20;43.72;;;19.50;99.90;;;;;;5098106;28;20118;-65
2023/05/28 09:04:06;;;;;;;49.65;29.02;;;19.40;99.90;;;;;;5115696;28;20043;-66
2023/05/28 09:06:38;;;;;;;51.72;30.70;;;19.50;99.90;;;;;;5097935;28;20035;-65
2023/05/28 09:09:10;;;;;;;58.35;33.95;;;19.30;99.90;;;;;;5097850;28;20387;-65
2023/05/28 09:11:42;;;;;;;56.00;33.00;;;19.20;99.90;;;;;;5097730;28;20024;-65
2023/05/28 09:14:10;;;;;;;60.95;35.70;;;19.10;99.90;;;;;;5115978;28;20087;-66
2023/05/28 09:16:40;;;;;;;62.97;34.38;;;19.00;99.90;;;;;;5097894;28;20039;-65
2023/05/28 09:19:08;;;;;;;53.42;29.95;;;19.00;99.90;;;;;;5097549;28;20042;-65
2023/05/28 09:21:36;;;;;;;62.17;33.05;;;19.00;99.90;;;;;;5116092;28;20027;-66
2023/05/28 09:24:05;;;;;;;58.17;31.40;;;19.10;99.90;;;;;;5097468;28;20504;-65
2023/05/28 09:27:10;;;;;;;45.80;24.90;;;19.10;99.90;;;;;;5115144;28;20060;-66
2023/05/28 09:29:38;;;;;;;35.33;21.77;;;19.30;99.90;;;;;;5097209;28;20023;-66
2023/05/28 09:32:04;;;;;;;32.00;21.33;;;19.50;99.90;;;;;;5115766;28;20460;-65
2023/05/28 09:34:31;;;;;;;33.40;20.33;;;19.50;99.90;;;;;;5115521;28;20396;-65
2023/05/28 09:37:04;;;;;;;37.28;20.25;;;19.80;99.90;;;;;;5115661;28;20031;-65
2023/05/28 09:39:31;;;;;;;35.53;21.58;;;20.10;99.90;;;;;;5115597;28;20031;-65
2023/05/28 09:42:09;;;;;;;50.53;27.02;;;20.40;99.90;;;;;;5115724;28;20028;-65
2023/05/28 09:44:37;;;;;;;48.92;27.83;;;20.60;99.90;;;;;;5115551;28;20089;-66
2023/05/28 09:47:15;;;;;;;61.60;34.47;;;21.30;99.90;;;;;;5115450;28;20028;-66
2023/05/28 09:49:43;;;;;;;66.45;36.90;;;21.30;99.90;;;;;;5115405;28;20032;-66
2023/05/28 09:52:10;;;;;;;59.20;35.53;;;21.50;99.90;;;;;;5115520;28;20028;-66
2023/05/28 09:54:38;;;;;;;66.47;38.97;;;21.60;99.90;;;;;;5115334;28;20027;-66
2023/05/28 09:57:10;;;;;;;68.32;38.53;;;21.50;99.90;;;;;;5115346;28;20035;-66
2023/05/28 09:59:38;;;;;;;73.47;40.65;;;21.40;99.90;;;;;;5115337;28;20092;-66
2023/05/28 10:02:37;;;;;;;73.25;41.40;;;21.70;99.90;;;;;;5115225;28;20028;-66
2023/05/28 10:05:06;;;;;;;105.32;54.22;;;22.00;99.90;;;;;;5115292;28;20087;-66
2023/05/28 10:07:34;;;;;;;89.68;49.88;;;22.10;99.90;;;;;;5115298;28;20032;-66
2023/05/28 10:10:01;;;;;;;114.13;55.50;;;22.30;99.90;;;;;;5115030;28;20032;-66
2023/05/28 10:12:31;;;;;;;83.40;45.83;;;22.40;99.90;;;;;;5115122;28;20059;-66
2023/05/28 10:14:57;;;;;;;81.75;46.78;;;22.40;99.90;;;;;;5115105;28;20061;-66
2023/05/28 10:17:24;;;;;;;84.63;48.05;;;22.50;99.90;;;;;;5115086;28;20106;-66
2023/05/28 10:19:50;;;;;;;83.07;53.50;;;22.60;99.90;;;;;;5115350;28;20046;-66
2023/05/28 10:22:17;;;;;;;74.47;44.97;;;22.70;99.90;;;;;;5115206;28;20472;-66
2023/05/28 10:24:44;;;;;;;89.10;50.40;;;22.70;99.90;;;;;;5114883;28;20020;-66
2023/05/28 10:27:15;;;;;;;99.65;50.03;;;22.80;99.90;;;;;;5115043;28;20354;-66
2023/05/28 10:29:42;;;;;;;101.40;53.65;;;22.70;99.60;;;;;;5114970;28;20056;-66
2023/05/28 10:32:09;;;;;;;103.85;56.88;;;22.90;99.40;;;;;;5114819;28;20473;-66
2023/05/28 10:34:36;;;;;;;113.25;56.60;;;22.70;99.90;;;;;;5114875;28;20121;-66
2023/05/28 10:37:05;;;;;;;101.28;53.22;;;23.00;99.90;;;;;;5114896;28;20035;-66
2023/05/28 10:39:38;;;;;;;90.15;53.30;;;23.60;99.90;;;;;;5116663;28;20384;-66
2023/05/28 10:42:10;;;;;;;80.50;45.10;;;24.20;99.60;;;;;;5119110;28;20031;-66
2023/05/28 10:45:03;;;;;;;86.78;48.85;;;24.60;98.20;;;;;;5119108;28;20038;-66
2023/05/28 10:47:34;;;;;;;99.65;54.95;;;25.20;96.30;;;;;;5119121;28;20362;-66
2023/05/28 10:50:14;;;;;;;107.07;56.72;;;25.00;93.20;;;;;;5118914;28;20068;-66
2023/05/28 10:52:41;;;;;;;128.30;66.40;;;24.90;93.00;;;;;;5118949;28;20032;-66
2023/05/28 10:55:14;;;;;;;65.55;40.38;;;24.60;94.50;;;;;;5118852;28;20485;-67
2023/05/28 10:57:45;;;;;;;50.40;32.28;;;24.50;93.00;;;;;;5118967;28;20024;-66
2023/05/28 11:00:14;;;;;;;45.63;28.83;;;24.80;91.90;;;;;;5118752;28;20107;-66
2023/05/28 11:02:44;;;;;;;46.65;29.92;;;24.90;90.00;;;;;;5118773;28;20623;-66
2023/05/28 11:05:10;;;;;;;54.40;34.63;;;24.60;90.00;;;;;;5118701;28;20016;-66
2023/05/28 11:07:41;;;;;;;63.63;40.83;;;25.00;91.40;;;;;;5118826;28;20042;-67
2023/05/28 11:10:08;;;;;;;;;;;24.70;87.20;;;;;;5119006;28;20022;-67
2023/05/28 11:12:39;;;;;;;33.60;22.02;;;24.50;91.30;;;;;;5118595;28;19908;-66
2023/05/28 11:15:10;;;;;;;30.92;21.75;;;24.50;90.00;;;;;;5118538;28;20035;-66
2023/05/28 11:17:41;;;;;;;28.70;18.45;;;24.60;89.20;;;;;;5118709;28;20034;-66
2023/05/28 11:20:27;;;;;;;22.60;16.50;;;24.50;90.50;;;;;;5118289;28;20435;-66
2023/05/28 11:22:54;;;;;;;19.00;12.85;;;24.80;90.70;;;;;;5118320;28;20031;-66
2023/05/28 11:25:26;;;;;;;18.33;12.45;;;24.70;86.50;;;;;;5118346;28;20031;-66
2023/05/28 11:27:54;;;;;;;22.50;12.88;;;24.70;90.70;;;;;;5118224;28;20039;-66
2023/05/28 11:30:20;;;;;;;21.73;15.10;;;25.10;85.50;;;;;;5118133;28;20031;-66
2023/05/28 11:32:48;;;;;;;23.15;15.48;;;25.10;84.50;;;;;;5118155;28;20032;-66
2023/05/28 11:35:16;;;;;;;16.58;12.43;;;24.90;86.20;;;;;;5117963;28;20035;-66
2023/05/28 11:37:43;;;;;;;19.65;12.48;;;24.70;86.70;;;;;;5118249;28;20499;-67
2023/05/28 11:40:11;;;;;;;16.85;9.75;;;24.80;85.00;;;;;;5118092;28;20027;-66
2023/05/28 11:42:39;;;;;;;16.45;9.90;;;24.80;81.30;;;;;;5118009;28;20028;-66
2023/05/28 11:45:06;;;;;;;14.68;9.52;;;24.40;83.40;;;;;;5117894;28;20039;-66
2023/05/28 11:47:36;;;;;;;14.48;9.02;;;24.80;82.60;;;;;;5117934;28;20032;-66
2023/05/28 11:50:09;;;;;;;14.43;9.63;;;25.20;79.40;;;;;;5117735;28;20028;-67
2023/05/28 11:52:35;;;;;;;18.75;9.57;;;25.50;80.90;;;;;;5099064;28;20380;-67
2023/05/28 11:55:02;;;;;;;13.63;9.15;;;25.90;79.10;;;;;;5117817;28;20087;-67
2023/05/28 11:57:34;;;;;;;13.20;8.70;;;26.40;81.60;;;;;;5117561;28;20375;-67
2023/05/28 12:00:15;;;;;;;13.18;10.25;;;26.80;79.30;;;;;;5117936;28;20404;-67
2023/05/28 12:02:46;;;;;;;21.60;11.32;;;26.80;75.40;;;;;;5117466;28;20024;-67
2023/05/28 12:05:13;;;;;;;17.10;9.63;;;26.70;73.70;;;;;;5117481;28;20116;-67
2023/05/28 12:07:47;;;;;;;15.00;9.15;;;26.70;75.80;;;;;;5117585;28;20016;-67
2023/05/28 12:10:16;;;;;;;12.00;8.73;;;26.60;75.10;;;;;;5117303;28;20023;-67
2023/05/28 12:12:45;;;;;;;13.90;9.00;;;27.20;73.90;;;;;;5117651;28;20030;-67
2023/05/28 12:15:12;;;;;;;15.15;8.73;;;27.10;73.30;;;;;;5117352;28;20119;-67
2023/05/28 12:17:39;;;;;;;12.40;8.85;;;27.10;74.80;;;;;;5117227;28;20370;-67
2023/05/28 12:20:06;;;;;;;12.57;8.60;;;27.00;72.40;;;;;;5117344;28;20059;-67
2023/05/28 12:22:32;;;;;;;15.57;9.20;;;26.70;71.00;;;;;;5116914;28;20374;-67
2023/05/28 12:24:58;;;;;;;17.02;9.60;;;26.30;72.90;;;;;;5117106;28;20076;-67
2023/05/28 12:27:24;;;;;;;15.02;9.35;;;26.30;72.60;;;;;;5117148;28;20034;-67
2023/05/28 12:29:50;;;;;;;15.80;10.45;;;25.60;74.20;;;;;;5117070;28;20075;-67
2023/05/28 12:32:16;;;;;;;14.68;9.05;;;25.60;74.40;;;;;;5116814;28;20529;-66